createdAt,value
2019-04-25T00:04:47.076Z,14.81
2019-04-25T00:09:52.823Z,14.76
2019-04-25T00:14:58.917Z,14.76
2019-04-25T00:20:05.906Z,14.73
2019-04-25T00:25:17.183Z,14.68
2019-04-25T00:30:21.014Z,14.59
2019-04-25T00:35:26.291Z,14.46
2019-04-25T00:40:31.871Z,14.40
2019-04-25T00:45:37.487Z,14.31
2019-04-25T00:50:43.278Z,14.24
2019-04-25T00:55:48.628Z,14.22
2019-04-25T01:01:12.076Z,14.22
2019-04-25T01:06:16.596Z,14.14
2019-04-25T01:11:21.570Z,14.05
2019-04-25T01:16:26.260Z,14.00
2019-04-25T01:21:30.786Z,13.91
2019-04-25T01:26:35.287Z,13.78
2019-04-25T01:31:39.961Z,13.64
2019-04-25T01:36:52.782Z,13.40
2019-04-25T01:42:08.737Z,13.20
2019-04-25T01:47:16.495Z,13.04
2019-04-25T01:52:20.916Z,12.87
2019-04-25T01:57:25.366Z,12.72
2019-04-25T02:02:30.423Z,12.62
2019-04-25T02:07:35.267Z,12.55
2019-04-25T02:12:46.918Z,12.42
2019-04-25T02:17:53.507Z,12.39
2019-04-25T02:22:57.946Z,12.43
2019-04-25T02:28:05.532Z,12.44
2019-04-25T02:33:09.332Z,12.33
2019-04-25T02:38:14.695Z,12.24
2019-04-25T02:43:20.121Z,12.19
2019-04-25T02:48:44.630Z,12.11
2019-04-25T02:53:50.731Z,12.11
2019-04-25T02:58:56.520Z,12.11
2019-04-25T03:04:01.167Z,12.27
2019-04-25T03:09:09.932Z,12.34
2019-04-25T03:14:14.791Z,12.40
2019-04-25T03:19:20.990Z,12.46
2019-04-25T03:24:25.568Z,12.54
2019-04-25T03:29:32.049Z,12.59
2019-04-25T03:34:36.655Z,12.51
2019-04-25T03:39:41.197Z,12.53
2019-04-25T03:44:46.714Z,12.62
2019-04-25T03:49:51.144Z,12.63
2019-04-25T03:54:56.824Z,12.60
2019-04-25T04:00:01.358Z,12.55
2019-04-25T04:05:08.243Z,12.57
2019-04-25T04:10:14.483Z,12.64
2019-04-25T04:15:20.136Z,12.70
2019-04-25T04:20:26.230Z,12.77
2019-04-25T04:25:30.837Z,12.83
2019-04-25T04:30:35.328Z,12.94
2019-04-25T04:35:39.793Z,13.11
2019-04-25T04:40:44.326Z,13.27
2019-04-25T04:45:48.837Z,13.41
2019-04-25T04:50:53.518Z,13.56
2019-04-25T04:55:58.076Z,13.73
2019-04-25T05:01:03.685Z,13.91
2019-04-25T05:06:14.845Z,14.09
2019-04-25T05:11:18.739Z,14.26
2019-04-25T05:16:24.414Z,14.37
2019-04-25T05:21:28.852Z,14.44
2019-04-25T05:26:34.141Z,14.55
2019-04-25T05:31:40.292Z,14.71
2019-04-25T05:36:44.860Z,14.89
2019-04-25T05:41:54.077Z,15.08
2019-04-25T05:46:58.589Z,15.29
2019-04-25T05:52:04.032Z,15.48
2019-04-25T05:57:08.695Z,15.67
2019-04-25T06:02:14.077Z,15.86
2019-04-25T06:07:19.374Z,16.03
2019-04-25T06:12:29.286Z,16.30
2019-04-25T06:17:38.216Z,16.63
2019-04-25T06:22:50.344Z,17.00
2019-04-25T06:28:03.788Z,17.30
2019-04-25T06:33:08.399Z,17.66
2019-04-25T06:38:13.317Z,17.83
2019-04-25T06:43:18.328Z,17.96
2019-04-25T06:48:36.677Z,18.10
2019-04-25T06:53:41.287Z,18.17
2019-04-25T06:58:45.788Z,18.19
2019-04-25T07:03:50.363Z,18.18
2019-04-25T07:08:55.932Z,18.30
2019-04-25T07:14:00.538Z,18.20
2019-04-25T07:19:06.042Z,18.17
2019-04-25T07:24:10.488Z,18.24
2019-04-25T07:29:38.460Z,18.29
2019-04-25T07:34:43.886Z,18.27
2019-04-25T07:39:49.694Z,18.30
2019-04-25T07:44:55.200Z,18.31
2019-04-25T07:49:59.834Z,18.29
2019-04-25T07:55:05.646Z,18.39
2019-04-25T08:00:16.258Z,18.62
2019-04-25T08:05:21.130Z,18.75
2019-04-25T08:10:28.194Z,18.69
2019-04-25T08:15:50.707Z,18.76
2019-04-25T08:20:55.496Z,18.95
2019-04-25T08:26:00.018Z,19.05
2019-04-25T08:31:04.717Z,19.12
2019-04-25T08:36:09.497Z,19.16
2019-04-25T08:41:14.166Z,19.28
2019-04-25T08:46:18.906Z,19.29
2019-04-25T08:51:25.128Z,19.51
2019-04-25T08:56:31.972Z,19.65
2019-04-25T09:01:57.380Z,19.80
2019-04-25T09:07:03.618Z,19.83
2019-04-25T09:12:08.286Z,19.91
2019-04-25T09:17:14.443Z,20.03
2019-04-25T09:22:19.125Z,20.14
2019-04-25T09:27:23.651Z,20.41
2019-04-25T09:32:28.191Z,20.54
2019-04-25T09:37:33.626Z,20.51
2019-04-25T09:42:39.731Z,20.73
2019-04-25T09:47:45.913Z,20.82
2019-04-25T09:52:50.549Z,21.05
2019-04-25T09:57:56.650Z,21.02
2019-04-25T10:03:01.740Z,21.12
2019-04-25T10:08:06.371Z,21.32
2019-04-25T10:13:10.865Z,21.38
2019-04-25T10:18:16.029Z,21.64
2019-04-25T10:23:20.660Z,21.88
2019-04-25T10:28:26.447Z,22.16
2019-04-25T10:33:31.083Z,22.52
2019-04-25T10:38:35.694Z,22.52
2019-04-25T10:43:40.583Z,22.73
2019-04-25T10:48:46.028Z,23.37
2019-04-25T10:53:51.656Z,23.68
2019-04-25T10:58:56.370Z,24.40
2019-04-25T11:04:02.500Z,24.16
2019-04-25T11:09:09.880Z,24.48
2019-04-25T11:14:14.729Z,25.40
2019-04-25T11:19:19.315Z,26.42
2019-04-25T11:24:23.893Z,27.87
2019-04-25T11:29:28.772Z,28.87
2019-04-25T11:34:33.389Z,30.22
2019-04-25T11:39:39.640Z,31.71
2019-04-25T11:44:45.446Z,32.27
2019-04-25T11:49:50.549Z,31.48
2019-04-25T11:54:55.774Z,32.58
2019-04-25T12:00:00.609Z,32.69
2019-04-25T12:05:07.088Z,34.34
2019-04-25T12:10:12.685Z,33.15
2019-04-25T12:15:17.305Z,34.43
2019-04-25T12:20:23.617Z,34.81
2019-04-25T12:25:28.146Z,33.83
2019-04-25T12:30:38.158Z,34.03
2019-04-25T12:35:38.895Z,33.84
2019-04-25T12:40:43.532Z,33.56
2019-04-25T12:45:49.639Z,35.84
2019-04-25T12:50:55.346Z,36.89
2019-04-25T12:55:59.971Z,37.58
2019-04-25T13:01:05.110Z,38.29
2019-04-25T13:06:09.671Z,37.25
2019-04-25T13:11:14.185Z,37.58
2019-04-25T13:16:18.719Z,36.55
2019-04-25T13:21:23.504Z,38.48
2019-04-25T13:26:29.869Z,39.55
2019-04-25T13:31:53.195Z,38.14
2019-04-25T13:36:58.161Z,37.55
2019-04-25T13:42:05.177Z,38.58
2019-04-25T13:47:09.793Z,38.94
2019-04-25T13:52:17.674Z,39.77
2019-04-25T13:57:21.783Z,39.60
2019-04-25T14:02:26.786Z,39.43
2019-04-25T14:07:31.926Z,39.47
2019-04-25T14:12:36.432Z,39.96
2019-04-25T14:17:46.383Z,40.18
2019-04-25T14:22:53.655Z,39.46
2019-04-25T14:27:58.279Z,38.24
2019-04-25T14:33:03.570Z,39.19
2019-04-25T14:38:08.422Z,37.59
2019-04-25T14:43:12.977Z,36.76
2019-04-25T14:48:17.587Z,35.50
2019-04-25T14:53:22.116Z,34.87
2019-04-25T14:58:28.300Z,35.39
2019-04-25T15:03:32.867Z,35.77
2019-04-25T15:08:37.292Z,36.19
2019-04-25T15:13:41.723Z,36.46
2019-04-25T15:18:47.157Z,36.20
2019-04-25T15:24:00.111Z,35.63
2019-04-25T15:28:57.945Z,35.71
2019-04-25T15:34:02.887Z,36.02
2019-04-25T15:39:26.748Z,35.46
2019-04-25T15:44:51.699Z,35.55
2019-04-25T15:49:56.382Z,35.25
2019-04-25T15:55:07.109Z,35.37
2019-04-25T16:00:09.199Z,35.45
2019-04-25T16:05:14.127Z,35.20
2019-04-25T16:10:18.787Z,35.18
2019-04-25T16:15:23.562Z,35.12
2019-04-25T16:20:28.673Z,34.91
2019-04-25T16:29:49.986Z,34.67
2019-04-25T16:34:56.237Z,34.49
2019-04-25T16:40:01.101Z,34.34
2019-04-25T16:45:08.307Z,34.68
2019-04-25T16:50:14.472Z,34.88
2019-04-25T16:55:19.000Z,33.89
2019-04-25T17:00:25.102Z,33.11
2019-04-25T17:05:32.389Z,32.43
2019-04-25T17:10:37.020Z,31.55
2019-04-25T17:15:43.278Z,30.99
2019-04-25T17:20:52.666Z,30.35
2019-04-25T17:25:57.326Z,29.70
2019-04-25T17:31:09.730Z,29.39
2019-04-25T17:36:33.190Z,28.97
2019-04-25T17:41:38.381Z,28.29
2019-04-25T17:46:44.025Z,27.54
2019-04-25T17:51:48.472Z,26.73
2019-04-25T17:56:52.976Z,26.04
2019-04-25T18:01:57.543Z,25.37
2019-04-25T18:07:05.683Z,24.51
2019-04-25T18:12:16.237Z,23.69
2019-04-25T18:17:20.819Z,23.21
2019-04-25T18:22:43.338Z,22.83
2019-04-25T18:27:52.357Z,22.52
2019-04-25T18:33:13.417Z,22.02
2019-04-25T18:38:23.346Z,21.37
2019-04-25T18:43:35.585Z,20.81
2019-04-25T18:48:41.131Z,20.50
2019-04-25T18:53:47.391Z,20.43
2019-04-25T18:58:55.548Z,20.21
2019-04-25T19:04:10.547Z,19.96
2019-04-25T19:09:15.413Z,19.68
2019-04-25T19:14:20.031Z,19.43
2019-04-25T19:19:24.472Z,19.23
2019-04-25T19:24:28.939Z,19.27
2019-04-25T19:29:33.422Z,19.05
2019-04-25T19:34:37.874Z,18.76
2019-04-25T19:39:45.166Z,18.57
2019-04-25T19:44:50.004Z,18.49
2019-04-25T19:49:54.643Z,18.34
2019-04-25T19:54:59.113Z,18.21
2019-04-25T20:00:06.713Z,18.27
2019-04-25T20:05:15.065Z,18.26
2019-04-25T20:10:36.550Z,18.35
2019-04-25T20:15:41.172Z,18.43
2019-04-25T20:20:46.058Z,18.38
2019-04-25T20:25:50.728Z,18.18
2019-04-25T20:30:55.235Z,17.62
2019-04-25T20:35:59.769Z,17.46
2019-04-25T20:41:04.239Z,17.46
2019-04-25T20:46:08.772Z,17.39
2019-04-25T20:51:13.229Z,17.21
2019-04-25T20:56:17.691Z,16.88
2019-04-25T21:01:22.291Z,16.88
2019-04-25T21:06:31.464Z,16.88
2019-04-25T21:11:35.964Z,16.82
2019-04-25T21:16:57.168Z,16.79
2019-04-25T21:22:02.760Z,16.81
2019-04-25T21:27:07.271Z,16.70
2019-04-25T21:32:13.239Z,16.53
2019-04-25T21:37:17.954Z,16.33
2019-04-25T21:42:24.589Z,16.24
2019-04-25T21:47:29.437Z,15.96
2019-04-25T21:52:34.232Z,15.81
2019-04-25T21:57:38.940Z,15.66
2019-04-25T22:02:43.866Z,15.55
2019-04-25T22:07:48.661Z,15.46
2019-04-25T22:12:53.383Z,15.38
2019-04-25T22:17:58.405Z,15.35
2019-04-25T22:23:02.918Z,15.23
2019-04-25T22:28:07.859Z,15.16
2019-04-25T22:33:20.080Z,15.28
2019-04-25T22:38:25.645Z,15.39
2019-04-25T22:43:33.861Z,15.44
2019-04-25T22:48:50.712Z,15.37
2019-04-25T22:53:55.214Z,15.27
2019-04-25T22:59:00.463Z,15.30
2019-04-25T23:04:23.370Z,15.32
2019-04-25T23:09:29.878Z,15.36
2019-04-25T23:14:34.949Z,15.28
2019-04-25T23:19:39.458Z,15.23
2019-04-25T23:24:51.613Z,15.13
2019-04-25T23:29:56.143Z,15.04
2019-04-25T23:35:00.888Z,15.05
2019-04-25T23:40:07.647Z,15.05
2019-04-25T23:45:12.804Z,15.14
2019-04-25T23:50:17.384Z,15.10
2019-04-25T23:55:21.884Z,14.97
